createdAt,value
2023-01-09T00:01:16.151Z,101468.42
2023-01-09T00:03:43.740Z,101463.02
2023-01-09T00:06:11.279Z,101462.98
2023-01-09T00:08:38.628Z,101469.38
2023-01-09T00:11:06.246Z,101463.64
2023-01-09T00:13:33.827Z,101458.23
2023-01-09T00:16:01.219Z,101460.13
2023-01-09T00:18:28.544Z,101459.09
2023-01-09T00:20:55.818Z,101456.46
2023-01-09T00:23:23.103Z,101450.59
2023-01-09T00:25:50.826Z,101451.13
2023-01-09T00:28:18.174Z,101452.02
2023-01-09T00:30:45.695Z,101447.89
2023-01-09T00:33:13.100Z,101447.20
2023-01-09T00:35:40.446Z,101445.11
2023-01-09T00:38:07.907Z,101446.31
2023-01-09T00:40:35.264Z,101440.57
2023-01-09T00:43:02.617Z,101438.13
2023-01-09T00:45:30.175Z,101434.98
2023-01-09T00:48:25.178Z,101433.39
2023-01-09T00:50:53.345Z,101430.92
2023-01-09T00:53:21.825Z,101428.13
2023-01-09T00:55:49.902Z,101422.55
2023-01-09T00:58:17.437Z,101423.59
2023-01-09T01:00:44.913Z,101415.79
2023-01-09T01:03:12.219Z,101412.84
2023-01-09T01:05:58.147Z,101407.30
2023-01-09T01:08:25.513Z,101405.38
2023-01-09T01:10:53.172Z,101399.27
2023-01-09T01:13:20.535Z,101394.39
2023-01-09T01:15:47.777Z,101389.83
2023-01-09T01:18:15.132Z,101387.88
2023-01-09T01:20:43.450Z,101385.11
2023-01-09T01:23:11.289Z,101383.52
2023-01-09T01:25:39.971Z,101379.36
2023-01-09T01:28:07.640Z,101380.73
2023-01-09T01:30:41.157Z,101380.38
2023-01-09T01:33:08.679Z,101377.44
2023-01-09T01:35:36.060Z,101376.74
2023-01-09T01:38:03.607Z,101367.73
2023-01-09T01:40:30.955Z,101364.61
2023-01-09T01:42:59.143Z,101365.48
2023-01-09T01:45:28.676Z,101366.87
2023-01-09T01:48:11.428Z,101368.96
2023-01-09T01:50:40.436Z,101365.88
2023-01-09T01:53:18.866Z,101358.09
2023-01-09T01:55:54.403Z,101355.33
2023-01-09T01:58:21.728Z,101356.88
2023-01-09T02:00:49.142Z,101351.52
2023-01-09T02:03:18.404Z,101348.22
2023-01-09T02:05:45.715Z,101349.28
2023-01-09T02:08:13.077Z,101343.21
2023-01-09T02:10:41.082Z,101340.11
2023-01-09T02:13:08.542Z,101335.27
2023-01-09T02:16:02.952Z,101333.21
2023-01-09T02:18:58.339Z,101323.71
2023-01-09T02:21:35.432Z,101323.41
2023-01-09T02:24:25.884Z,101316.13
2023-01-09T02:27:12.160Z,101312.86
2023-01-09T02:30:03.047Z,101310.30
2023-01-09T02:32:57.270Z,101307.17
2023-01-09T02:35:34.550Z,101301.98
2023-01-09T02:38:21.108Z,101297.31
2023-01-09T02:40:54.026Z,101294.36
2023-01-09T02:43:21.336Z,101293.48
2023-01-09T02:45:48.644Z,101293.16
2023-01-09T02:48:15.913Z,101291.94
2023-01-09T02:50:57.846Z,101293.49
2023-01-09T02:53:50.484Z,101297.13
2023-01-09T02:56:34.119Z,101295.55
2023-01-09T02:59:14.391Z,101295.02
2023-01-09T03:02:07.846Z,101292.41
2023-01-09T03:04:58.545Z,101290.12
2023-01-09T03:07:32.966Z,101287.85
2023-01-09T03:10:30.636Z,101287.32
2023-01-09T03:12:59.080Z,101298.06
2023-01-09T03:15:27.648Z,101288.19
2023-01-09T03:17:54.975Z,101291.51
2023-01-09T03:20:23.844Z,101285.79
2023-01-09T03:22:58.801Z,101282.35
2023-01-09T03:25:26.845Z,101272.64
2023-01-09T03:28:08.529Z,101273.36
2023-01-09T03:30:36.471Z,101276.31
2023-01-09T03:33:03.861Z,101278.71
2023-01-09T03:35:34.285Z,101274.38
2023-01-09T03:38:01.642Z,101274.33
2023-01-09T03:40:28.997Z,101268.59
2023-01-09T03:42:56.558Z,101264.77
2023-01-09T03:45:23.928Z,101264.77
2023-01-09T03:47:52.945Z,101264.74
2023-01-09T03:50:20.456Z,101268.38
2023-01-09T03:52:47.842Z,101266.29
2023-01-09T03:55:15.826Z,101267.16
2023-01-09T03:57:43.448Z,101267.85
2023-01-09T04:00:11.832Z,101268.52
2023-01-09T04:02:42.761Z,101269.70
2023-01-09T04:05:10.581Z,101277.84
2023-01-09T04:07:39.330Z,101282.52
2023-01-09T04:10:07.484Z,101279.92
2023-01-09T04:12:34.736Z,101281.15
2023-01-09T04:15:02.091Z,101280.29
2023-01-09T04:17:29.547Z,101280.31
2023-01-09T04:19:56.920Z,101279.97
2023-01-09T04:22:24.485Z,101288.30
2023-01-09T04:24:51.752Z,101284.66
2023-01-09T04:27:18.934Z,101281.38
2023-01-09T04:29:46.564Z,101279.48
2023-01-09T04:32:13.920Z,101286.25
2023-01-09T04:34:41.134Z,101289.71
2023-01-09T04:37:08.386Z,101291.27
2023-01-09T04:39:35.816Z,101289.67
2023-01-09T04:42:03.511Z,101290.20
2023-01-09T04:44:30.795Z,101286.21
2023-01-09T04:46:59.271Z,101286.90
2023-01-09T04:49:26.697Z,101283.61
2023-01-09T04:51:54.250Z,101271.64
2023-01-09T04:54:22.031Z,101270.08
2023-01-09T04:56:49.254Z,101265.40
2023-01-09T04:59:16.731Z,101264.50
2023-01-09T05:01:44.093Z,101265.88
2023-01-09T05:04:11.967Z,101264.48
2023-01-09T05:06:39.216Z,101259.95
2023-01-09T05:09:06.452Z,101260.66
2023-01-09T05:11:33.720Z,101260.83
2023-01-09T05:14:00.928Z,101257.03
2023-01-09T05:16:28.268Z,101253.92
2023-01-09T05:18:57.511Z,101253.92
2023-01-09T05:21:24.967Z,101253.75
2023-01-09T05:23:52.222Z,101254.63
2023-01-09T05:26:24.259Z,101252.04
2023-01-09T05:28:52.493Z,101256.02
2023-01-09T05:31:20.204Z,101257.23
2023-01-09T05:33:47.520Z,101261.23
2023-01-09T05:36:14.942Z,101263.84
2023-01-09T05:38:42.257Z,101262.61
2023-01-09T05:41:09.580Z,101260.17
2023-01-09T05:43:36.807Z,101257.73
2023-01-09T05:46:04.084Z,101257.39
2023-01-09T05:48:31.327Z,101249.07
2023-01-09T05:50:58.533Z,101243.17
2023-01-09T05:53:25.788Z,101239.89
2023-01-09T05:55:53.070Z,101236.08
2023-01-09T05:58:20.402Z,101231.25
2023-01-09T06:00:48.737Z,101229.88
2023-01-09T06:03:15.966Z,101226.08
2023-01-09T06:05:43.205Z,101230.95
2023-01-09T06:08:10.541Z,101229.42
2023-01-09T06:10:37.786Z,101227.94
2023-01-09T06:13:05.149Z,101227.52
2023-01-09T06:15:32.324Z,101223.08
2023-01-09T06:17:59.749Z,101214.78
2023-01-09T06:20:27.002Z,101215.84
2023-01-09T06:22:54.354Z,101219.17
2023-01-09T06:25:21.721Z,101217.26
2023-01-09T06:27:50.049Z,101217.27
2023-01-09T06:30:17.644Z,101218.15
2023-01-09T06:32:44.913Z,101217.30
2023-01-09T06:35:12.123Z,101208.30
2023-01-09T06:37:39.346Z,101201.20
2023-01-09T06:40:07.292Z,101202.27
2023-01-09T06:42:34.501Z,101200.89
2023-01-09T06:45:02.698Z,101195.17
2023-01-09T06:47:29.942Z,101188.06
2023-01-09T06:49:58.525Z,101194.69
2023-01-09T06:52:25.771Z,101191.40
2023-01-09T06:54:53.046Z,101185.86
2023-01-09T06:57:20.402Z,101179.96
2023-01-09T06:59:47.699Z,101173.19
2023-01-09T07:02:19.434Z,101180.14
2023-01-09T07:04:46.774Z,101183.98
2023-01-09T07:07:14.797Z,101183.64
2023-01-09T07:09:42.073Z,101178.22
2023-01-09T07:12:09.641Z,101167.74
2023-01-09T07:14:37.108Z,101169.28
2023-01-09T07:17:04.388Z,101163.33
2023-01-09T07:19:31.629Z,101155.28
2023-01-09T07:21:58.940Z,101154.02
2023-01-09T07:24:26.205Z,101156.42
2023-01-09T07:26:53.564Z,101156.52
2023-01-09T07:29:20.914Z,101154.71
2023-01-09T07:31:48.471Z,101149.41
2023-01-09T07:34:15.724Z,101145.85
2023-01-09T07:36:47.422Z,101145.08
2023-01-09T07:39:14.901Z,101142.71
2023-01-09T07:41:42.160Z,101140.34
2023-01-09T07:44:11.165Z,101137.80
2023-01-09T07:46:38.990Z,101135.20
2023-01-09T07:49:06.762Z,101130.59
2023-01-09T07:51:35.056Z,101130.55
2023-01-09T07:54:02.260Z,101121.09
2023-01-09T07:56:29.492Z,101121.60
2023-01-09T07:58:57.455Z,101120.66
2023-01-09T08:01:26.157Z,101118.84
2023-01-09T08:03:54.729Z,101113.52
2023-01-09T08:06:22.175Z,101106.77
2023-01-09T08:08:50.296Z,101102.44
2023-01-09T08:11:19.990Z,101089.95
2023-01-09T08:13:47.182Z,101082.71
2023-01-09T08:16:14.494Z,101068.63
2023-01-09T08:18:42.037Z,101050.21
2023-01-09T08:21:09.798Z,101031.94
2023-01-09T08:23:37.766Z,101009.91
2023-01-09T08:26:05.221Z,100976.83
2023-01-09T08:28:32.481Z,100949.45
2023-01-09T08:30:59.665Z,100923.33
2023-01-09T08:33:27.452Z,100878.05
2023-01-09T08:35:56.433Z,100835.33
2023-01-09T08:38:24.321Z,100804.27
2023-01-09T08:40:52.019Z,100780.73
2023-01-09T08:43:38.124Z,100745.90
2023-01-09T08:46:24.474Z,100704.29
2023-01-09T08:48:51.829Z,100677.33
2023-01-09T08:51:19.087Z,100655.39
2023-01-09T08:53:46.329Z,100631.70
2023-01-09T08:56:13.641Z,100613.04
2023-01-09T08:58:41.479Z,100595.20
2023-01-09T09:01:08.760Z,100576.55
2023-01-09T09:03:36.031Z,100560.27
2023-01-09T09:06:03.850Z,100559.04
2023-01-09T09:08:31.079Z,100554.23
2023-01-09T09:11:01.480Z,100559.22
2023-01-09T09:13:28.697Z,100557.42
2023-01-09T09:15:57.917Z,100565.26
2023-01-09T09:18:25.179Z,100566.69
2023-01-09T09:20:52.695Z,100571.01
2023-01-09T09:23:20.741Z,100616.77
2023-01-09T09:25:48.014Z,100620.00
2023-01-09T09:28:15.226Z,100627.98
2023-01-09T09:30:43.945Z,100624.39
2023-01-09T09:33:11.634Z,100614.91
2023-01-09T09:35:39.001Z,100609.73
2023-01-09T09:38:06.835Z,100609.89
2023-01-09T09:40:57.530Z,100607.17
2023-01-09T09:43:49.909Z,100599.19
2023-01-09T09:46:29.874Z,100591.24
2023-01-09T09:49:07.930Z,100593.63
2023-01-09T09:51:38.157Z,100604.13
2023-01-09T09:54:13.738Z,100609.14
2023-01-09T09:56:47.247Z,100608.81
2023-01-09T09:59:22.140Z,100602.06
2023-01-09T10:01:53.478Z,100591.86
2023-01-09T10:04:21.730Z,100593.28
2023-01-09T10:06:51.299Z,100597.34
2023-01-09T10:09:48.623Z,100596.19
2023-01-09T10:12:31.946Z,100595.60
2023-01-09T10:15:00.655Z,100588.07
2023-01-09T10:17:45.776Z,100585.35
2023-01-09T10:20:25.141Z,100570.61
2023-01-09T10:23:11.715Z,100558.84
2023-01-09T10:25:46.680Z,100556.33
2023-01-09T10:28:14.033Z,100551.14
2023-01-09T10:30:42.909Z,100555.40
2023-01-09T10:33:34.192Z,100559.84
2023-01-09T10:36:16.653Z,100559.92
2023-01-09T10:38:45.824Z,100550.19
2023-01-09T10:41:39.499Z,100548.30
2023-01-09T10:44:45.792Z,100535.03
2023-01-09T10:47:27.266Z,100549.04
2023-01-09T10:49:54.494Z,100556.92
2023-01-09T10:52:30.547Z,100553.20
2023-01-09T10:55:01.874Z,100544.23
2023-01-09T10:57:45.861Z,100530.13
2023-01-09T11:00:24.022Z,100523.15
2023-01-09T11:02:55.383Z,100519.02
2023-01-09T11:05:28.139Z,100517.98
2023-01-09T11:08:12.942Z,100518.80
2023-01-09T11:10:51.489Z,100516.68
2023-01-09T11:13:30.063Z,100514.19
2023-01-09T11:16:22.356Z,100516.85
2023-01-09T11:18:52.557Z,100517.28
2023-01-09T11:21:33.037Z,100518.69
2023-01-09T11:24:24.186Z,100524.77
2023-01-09T11:26:53.018Z,100524.80
2023-01-09T11:29:25.370Z,100521.34
2023-01-09T11:31:58.574Z,100520.34
2023-01-09T11:34:31.493Z,100522.03
2023-01-09T11:37:09.441Z,100525.36
2023-01-09T11:39:41.438Z,100526.41
2023-01-09T11:42:44.529Z,100523.18
2023-01-09T11:45:16.037Z,100516.50
2023-01-09T11:47:43.307Z,100506.78
2023-01-09T11:50:31.115Z,100502.58
2023-01-09T11:53:18.545Z,100507.42
2023-01-09T11:55:47.215Z,100503.94
2023-01-09T11:58:16.744Z,100500.84
2023-01-09T12:01:06.497Z,100504.47
2023-01-09T12:03:55.858Z,100509.63
2023-01-09T12:06:44.586Z,100505.83
2023-01-09T12:09:28.756Z,100485.67
2023-01-09T12:12:05.466Z,100467.44
2023-01-09T12:14:35.869Z,100492.20
2023-01-09T12:17:19.572Z,100512.17
2023-01-09T12:20:34.223Z,100554.55
2023-01-09T12:23:01.719Z,100597.40
2023-01-09T12:25:38.429Z,100602.05
2023-01-09T12:28:39.140Z,100579.36
2023-01-09T12:31:15.896Z,100566.08
2023-01-09T12:34:15.218Z,100570.39
2023-01-09T12:37:20.597Z,100576.46
2023-01-09T12:39:58.122Z,100572.16
2023-01-09T12:42:47.205Z,100573.68
2023-01-09T12:45:54.866Z,100578.13
2023-01-09T12:48:42.114Z,100571.52
2023-01-09T12:51:29.327Z,100571.42
2023-01-09T12:54:08.336Z,100567.45
2023-01-09T12:56:38.275Z,100559.15
2023-01-09T12:59:07.896Z,100554.75
2023-01-09T13:01:39.535Z,100559.71
2023-01-09T13:04:14.382Z,100554.27
2023-01-09T13:06:45.652Z,100549.16
2023-01-09T13:09:23.294Z,100542.91
2023-01-09T13:12:03.328Z,100540.77
2023-01-09T13:14:48.079Z,100535.35
2023-01-09T13:17:43.013Z,100529.23
2023-01-09T13:20:34.110Z,100524.55
2023-01-09T13:23:02.036Z,100512.90
2023-01-09T13:25:32.328Z,100500.17
2023-01-09T13:28:02.696Z,100497.78
2023-01-09T13:30:51.372Z,100499.66
2023-01-09T13:33:21.135Z,100500.09
2023-01-09T13:35:53.052Z,100504.47
2023-01-09T13:38:22.641Z,100498.80
2023-01-09T13:41:32.560Z,100490.33
2023-01-09T13:44:29.105Z,100483.23
2023-01-09T13:46:57.663Z,100482.75
2023-01-09T13:49:43.551Z,100479.89
2023-01-09T13:52:26.232Z,100478.04
2023-01-09T13:54:53.800Z,100473.61
2023-01-09T13:57:21.048Z,100470.85
2023-01-09T13:59:49.184Z,100468.59
2023-01-09T14:02:36.041Z,100461.80
2023-01-09T14:05:04.691Z,100449.77
2023-01-09T14:07:38.881Z,100440.67
2023-01-09T14:10:27.254Z,100431.41
2023-01-09T14:12:56.200Z,100424.98
2023-01-09T14:15:34.026Z,100422.95
2023-01-09T14:18:15.160Z,100415.80
2023-01-09T14:20:47.562Z,100410.96
2023-01-09T14:40:22.333Z,100339.87
2023-01-09T14:42:54.188Z,100343.06
2023-01-09T14:45:23.653Z,100340.38
2023-01-09T14:47:55.428Z,100344.06
2023-01-09T14:50:51.769Z,100336.70
2023-01-09T14:53:21.516Z,100326.02
2023-01-09T14:55:55.716Z,100321.89
2023-01-09T14:58:27.825Z,100326.73
2023-01-09T15:00:58.975Z,100325.39
2023-01-09T15:03:29.129Z,100325.83
2023-01-09T15:05:56.676Z,100328.66
2023-01-09T15:08:26.003Z,100331.60
2023-01-09T15:10:55.458Z,100335.08
2023-01-09T15:13:36.867Z,100334.84
2023-01-09T15:16:16.447Z,100330.83
2023-01-09T15:18:43.607Z,100324.88
2023-01-09T15:21:17.667Z,100325.08
2023-01-09T15:23:44.912Z,100316.17
2023-01-09T15:26:24.599Z,100312.36
2023-01-09T15:29:02.021Z,100305.23
2023-01-09T15:31:29.185Z,100306.52
2023-01-09T15:33:56.459Z,100310.09
2023-01-09T15:36:27.699Z,100310.16
2023-01-09T18:28:39.179Z,100333.91
2023-01-09T18:31:06.675Z,100350.92
2023-01-09T18:33:33.889Z,100353.03
2023-01-09T18:36:08.768Z,100360.90
2023-01-09T18:38:36.167Z,100364.85
2023-01-09T18:41:04.175Z,100368.59
2023-01-09T18:43:31.556Z,100369.02
2023-01-09T18:45:59.208Z,100372.92
2023-01-09T18:48:26.968Z,100376.96
2023-01-09T18:51:03.135Z,100382.23
2023-01-09T18:53:30.704Z,100373.19
2023-01-09T18:55:58.171Z,100375.57
2023-01-09T18:58:25.436Z,100380.20
2023-01-09T19:00:55.694Z,100379.59
2023-01-09T19:03:23.326Z,100373.72
2023-01-09T19:05:50.706Z,100363.85
2023-01-09T19:08:20.174Z,100357.65
2023-01-09T19:10:53.011Z,100353.54
2023-01-09T19:13:21.759Z,100348.20
2023-01-09T19:15:54.904Z,100349.45
2023-01-09T19:18:24.635Z,100348.73
2023-01-09T19:20:53.184Z,100336.00
2023-01-09T19:23:26.509Z,100339.72
2023-01-09T19:25:54.368Z,100328.07
2023-01-09T19:28:21.802Z,100324.13
2023-01-09T19:30:56.307Z,100325.91
2023-01-09T19:33:25.550Z,100329.29
2023-01-09T19:35:53.215Z,100326.20
2023-01-09T19:38:22.852Z,100323.98
2023-01-09T19:40:50.765Z,100324.23
2023-01-09T19:43:28.019Z,100321.15
2023-01-09T19:45:55.915Z,100314.63
2023-01-09T19:48:25.137Z,100314.36
2023-01-09T19:50:52.792Z,100310.64
2023-01-09T19:53:20.808Z,100315.23
2023-01-09T19:55:48.154Z,100312.50
2023-01-09T19:58:16.742Z,100318.48
2023-01-09T20:00:44.019Z,100324.49
2023-01-09T20:03:11.635Z,100321.92
2023-01-09T20:05:38.903Z,100321.79
2023-01-09T20:08:06.854Z,100323.77
2023-01-09T20:10:34.082Z,100331.84
2023-01-09T20:13:01.678Z,100331.20
2023-01-09T20:15:29.040Z,100332.29
2023-01-09T20:17:56.467Z,100333.04
2023-01-09T20:20:24.105Z,100335.52
2023-01-09T20:22:51.383Z,100332.80
2023-01-09T20:25:18.674Z,100327.44
2023-01-09T20:27:47.653Z,100330.39
2023-01-09T20:30:15.404Z,100330.72
2023-01-09T20:32:45.256Z,100329.52
2023-01-09T20:35:12.573Z,100333.73
2023-01-09T20:37:40.343Z,100334.66
2023-01-09T20:40:08.986Z,100342.57
2023-01-09T20:42:36.354Z,100336.69
2023-01-09T20:45:03.861Z,100338.82
2023-01-09T20:47:31.143Z,100329.98
2023-01-09T20:49:59.308Z,100334.90
2023-01-09T20:52:26.722Z,100334.22
2023-01-09T20:54:55.632Z,100335.96
2023-01-09T20:57:23.173Z,100336.02
2023-01-09T20:59:50.636Z,100336.58
2023-01-09T21:02:18.007Z,100335.59
2023-01-09T21:04:45.298Z,100335.83
2023-01-09T21:07:12.622Z,100336.73
2023-01-09T21:09:39.996Z,100340.22
2023-01-09T21:12:24.878Z,100343.55
2023-01-09T21:14:52.156Z,100338.34
2023-01-09T21:17:19.482Z,100342.58
2023-01-09T21:19:46.679Z,100349.08
2023-01-09T21:22:14.037Z,100350.02
2023-01-09T21:24:41.329Z,100354.77
2023-01-09T21:27:08.783Z,100353.64
2023-01-09T21:29:36.092Z,100359.27
2023-01-09T21:32:03.440Z,100355.98
2023-01-09T21:34:31.353Z,100358.80
2023-01-09T21:36:58.763Z,100358.65
2023-01-09T21:39:26.247Z,100355.17
2023-01-09T21:42:12.317Z,100356.95
2023-01-09T21:44:58.133Z,100352.27
2023-01-09T21:47:25.493Z,100354.94
2023-01-09T21:49:52.709Z,100355.14
2023-01-09T21:52:21.182Z,100352.91
2023-01-09T21:54:48.375Z,100357.65
2023-01-09T21:57:16.250Z,100363.05
2023-01-09T21:59:43.668Z,100361.66
2023-01-09T22:02:12.868Z,100362.53
2023-01-09T22:04:41.304Z,100363.45
2023-01-09T22:07:10.834Z,100363.67
2023-01-09T22:09:38.574Z,100362.86
2023-01-09T22:12:06.386Z,100365.88
2023-01-09T22:14:33.952Z,100363.98
2023-01-09T22:17:02.975Z,100360.19
